Time;durP1;ratioP1;P1;durP2;ratioP2;P2;SDS_P1;SDS_P2;PMS_P1;PMS_P2;Temp;Humidity;BMP_temperature;BMP_pressure;BME280_temperature;BME280_humidity;BME280_pressure;Samples;Min_cycle;Max_cycle;Signal;HPM_P1;HPM_P2
2022/01/27 00:01:22;;;;;;;39.13;19.10;;;;;;;5.82;93.89;101708.22;5089705;28;20433;-45
2022/01/27 00:04:03;;;;;;;29.57;21.90;;;;;;;5.84;93.40;101698.31;5089250;28;20460;-44
2022/01/27 00:06:32;;;;;;;22.43;19.20;;;;;;;5.81;93.95;101689.81;5089056;28;20519;-48
2022/01/27 00:09:10;;;;;;;29.97;21.17;;;;;;;5.86;94.25;101691.09;5088502;27;20457;-48
2022/01/27 00:11:38;;;;;;;36.57;22.50;;;;;;;5.85;94.63;101686.78;5088905;28;20432;-46
2022/01/27 00:14:06;;;;;;;35.20;22.93;;;;;;;5.85;94.61;101668.25;5089021;28;20826;-44
2022/01/27 00:16:40;;;;;;;23.53;21.03;;;;;;;5.89;94.19;101666.13;5088961;28;20434;-44
2022/01/27 00:19:09;;;;;;;33.20;23.03;;;;;;;5.91;94.96;101674.78;5088409;27;20544;-49
2022/01/27 00:21:38;;;;;;;42.83;22.50;;;;;;;5.91;94.02;101670.28;5088903;28;20802;-46
2022/01/27 00:24:06;;;;;;;33.83;21.37;;;;;;;5.93;94.81;101678.13;5088575;28;21065;-48
2022/01/27 00:26:34;;;;;;;31.57;23.70;;;;;;;5.91;94.53;101667.66;5089041;28;20505;-45
2022/01/27 00:29:01;;;;;;;33.37;21.77;;;;;;;5.92;94.11;101661.38;5088186;27;20461;-46
2022/01/27 00:31:29;;;;;;;33.47;22.10;;;;;;;5.91;93.93;101651.78;5088788;28;20430;-45
2022/01/27 00:33:57;;;;;;;41.27;23.30;;;;;;;5.89;93.70;101640.50;5088655;28;20460;-47
2022/01/27 00:36:26;;;;;;;41.07;22.43;;;;;;;5.89;93.71;101631.72;5088586;28;20426;-46
2022/01/27 00:38:54;;;;;;;46.27;25.07;;;;;;;5.89;93.22;101644.97;5088079;27;20461;-48
2022/01/27 00:41:22;;;;;;;38.20;24.27;;;;;;;5.88;93.61;101645.94;5088551;28;20434;-47
2022/01/27 00:43:50;;;;;;;45.40;22.87;;;;;;;5.91;93.53;101648.31;5088246;28;20456;-44
2022/01/27 00:46:19;;;;;;;33.47;22.53;;;;;;;5.93;94.08;101654.28;5088011;28;21009;-46
2022/01/27 00:48:48;;;;;;;40.00;24.67;;;;;;;5.91;93.90;101638.53;5087561;28;20815;-47
2022/01/27 00:51:21;;;;;;;36.50;22.37;;;;;;;5.92;93.79;101637.56;5088523;28;20509;-47
2022/01/27 00:53:59;;;;;;;45.20;23.40;;;;;;;5.93;93.64;101636.59;5088056;28;21010;-46
2022/01/27 00:56:34;;;;;;;39.13;23.00;;;;;;;5.96;94.27;101632.81;5087338;28;20875;-46
2022/01/27 00:59:19;;;;;;;33.10;21.77;;;;;;;5.96;94.36;101623.06;5073820;28;20457;-48
2022/01/27 01:01:53;;;;;;;29.97;21.00;;;;;;;5.95;94.29;101624.03;5074576;28;20426;-45
2022/01/27 01:04:27;;;;;;;38.83;22.23;;;;;;;5.98;94.34;101622.91;5074480;28;20465;-45
2022/01/27 01:06:55;;;;;;;33.33;22.27;;;;;;;5.98;94.56;101620.25;5074382;28;20481;-47
2022/01/27 01:14:56;;;;;;;41.47;23.60;;;;;;;6.01;95.03;101590.84;5074523;28;20454;-44
2022/01/27 01:17:33;;;;;;;29.60;21.87;;;;;;;5.98;95.40;101565.50;5074255;28;20427;-47
2022/01/27 01:20:23;;;;;;;38.93;23.27;;;;;;;6.01;95.89;101583.75;5073749;28;21003;-46
2022/01/27 01:31:28;;;;;;;41.07;23.10;;;;;;;5.98;94.77;101564.66;5054077;28;20974;-52
2022/01/27 01:34:12;;;;;;;35.17;25.50;;;;;;;5.94;94.47;101556.16;5054177;28;20436;-50
2022/01/27 01:36:48;;;;;;;38.87;24.13;;;;;;;5.89;94.03;101547.84;5053698;28;20808;-48
2022/01/27 01:39:16;;;;;;;42.17;22.93;;;;;;;5.91;93.20;101551.16;5053316;28;20463;-46
2022/01/27 01:41:45;;;;;;;48.03;25.37;;;;;;;5.90;93.34;101538.94;5053805;28;20521;-50
2022/01/27 01:44:13;;;;;;;46.33;24.70;;;;;;;5.88;92.82;101545.38;5042216;28;20949;-45
2022/01/27 01:46:40;;;;;;;41.90;25.27;;;;;;;5.85;92.88;101535.03;5033491;28;20495;-46
2022/01/27 01:49:08;;;;;;;51.67;27.30;;;;;;;5.88;93.05;101526.84;5033130;28;20467;-47
2022/01/27 01:51:38;;;;;;;45.03;22.90;;;;;;;5.85;93.07;101527.09;5033867;28;20428;-50
2022/01/27 01:54:06;;;;;;;59.43;24.97;;;;;;;5.83;91.87;101521.09;5033679;28;20441;-47
2022/01/27 01:56:35;;;;;;;48.27;26.87;;;;;;;5.80;89.68;101524.88;5033436;28;20980;-49
2022/01/27 01:59:05;;;;;;;52.30;24.67;;;;;;;5.78;88.92;101529.50;5032960;28;20460;-48
2022/01/27 02:01:34;;;;;;;52.70;23.30;;;;;;;5.77;87.77;101516.38;5033462;28;20432;-50
2022/01/27 02:04:06;;;;;;;43.03;23.87;;;;;;;5.73;85.80;101480.63;5033364;28;20530;-48
2022/01/27 02:06:39;;;;;;;50.67;25.50;;;;;;;5.69;83.69;101497.78;5033471;28;21011;-45
2022/01/27 02:09:18;;;;;;;42.20;23.10;;;;;;;5.61;80.15;101484.44;5031779;28;20842;-46
2022/01/27 02:20:05;;;;;;;46.73;22.30;;;;;;;5.40;65.59;101474.94;5032777;28;20872;-46
2022/01/27 02:22:33;;;;;;;43.83;24.63;;;;;;;5.39;64.51;101483.00;5032911;28;20432;-48
2022/01/27 02:25:01;;;;;;;42.30;24.30;;;;;;;5.39;63.67;101469.78;5032769;28;20476;-49
2022/01/27 02:27:28;;;;;;;40.70;22.53;;;;;;;5.36;62.56;101465.63;5032824;28;20562;-47
2022/01/27 02:29:56;;;;;;;49.93;23.53;;;;;;;5.31;60.65;101462.59;5032529;28;20467;-48
2022/01/27 02:32:24;;;;;;;38.20;22.30;;;;;;;5.29;59.17;101467.16;5032963;28;20440;-47
2022/01/27 02:34:52;;;;;;;44.83;21.63;;;;;;;5.29;58.03;101461.88;5032700;28;20467;-49
2022/01/27 02:37:21;;;;;;;43.50;24.10;;;;;;;5.26;57.42;101453.38;5032755;28;20420;-49
2022/01/27 02:39:48;;;;;;;44.40;21.33;;;;;;;5.27;56.56;101440.03;5032267;28;20471;-46
2022/01/27 02:42:20;;;;;;;49.33;22.20;;;;;;;5.26;56.00;101435.72;5032946;28;20826;-46
2022/01/27 02:45:01;;;;;;;35.77;20.33;;;;;;;5.27;54.55;101428.63;5032375;28;20531;-48
2022/01/27 02:47:28;;;;;;;36.80;22.13;;;;;;;5.28;53.79;101440.88;5032189;28;20472;-51
2022/01/27 02:49:56;;;;;;;39.50;21.00;;;;;;;5.29;54.36;101431.94;5032306;28;20464;-51
2022/01/27 02:52:25;;;;;;;35.27;19.80;;;;;;;5.27;53.03;101431.25;5032801;28;20436;-49
2022/01/27 02:54:53;;;;;;;40.43;21.17;;;;;;;5.28;53.31;101425.00;5032489;28;20463;-47
2022/01/27 02:57:23;;;;;;;40.90;22.10;;;;;;;5.27;53.33;101426.81;5032531;28;20528;-49
2022/01/27 02:59:51;;;;;;;41.33;24.00;;;;;;;5.30;53.25;101410.66;5031926;28;20464;-48
2022/01/27 03:02:19;;;;;;;45.10;24.50;;;;;;;5.29;54.36;101416.91;5032297;28;20487;-47
2022/01/27 03:04:47;;;;;;;40.90;23.47;;;;;;;5.32;53.68;101405.22;5032317;28;20437;-47
2022/01/27 03:07:15;;;;;;;35.30;22.83;;;;;;;5.33;53.14;101406.88;5032133;28;20476;-49
2022/01/27 03:09:44;;;;;;;39.27;22.60;;;;;;;5.35;53.85;101399.63;5031836;28;20543;-47
2022/01/27 03:12:12;;;;;;;47.40;24.80;;;;;;;5.36;54.43;101393.38;5032212;28;20431;-49
2022/01/27 03:14:42;;;;;;;47.67;25.50;;;;;;;5.37;54.23;101372.06;5031959;28;20795;-48
2022/01/27 03:17:11;;;;;;;39.00;24.13;;;;;;;5.38;54.70;101381.66;5031949;28;20433;-47
2022/01/27 03:19:39;;;;;;;43.37;23.90;;;;;;;5.39;54.86;101372.75;5031522;28;20460;-47
2022/01/27 03:22:08;;;;;;;45.53;25.60;;;;;;;5.40;54.26;101369.13;5032065;28;20955;-48
2022/01/27 03:24:37;;;;;;;51.70;26.27;;;;;;;5.42;54.90;101363.69;5031754;28;20467;-50
2022/01/27 03:27:13;;;;;;;48.73;24.40;;;;;;;5.45;54.79;101364.22;5031833;28;20475;-50
2022/01/27 03:29:41;;;;;;;44.60;24.40;;;;;;;5.44;54.96;101349.31;5031599;28;21010;-47
2022/01/27 03:32:09;;;;;;;49.70;23.17;;;;;;;5.45;55.44;101358.09;5032038;28;20434;-46
2022/01/27 03:34:37;;;;;;;51.40;24.83;;;;;;;5.47;53.93;101348.19;5031874;28;20832;-46
2022/01/27 03:37:05;;;;;;;43.80;23.30;;;;;;;5.47;53.90;101337.59;5031700;28;20433;-52
2022/01/27 03:39:35;;;;;;;48.60;24.83;;;;;;;5.47;53.37;101332.31;5031150;28;20467;-50
2022/01/27 03:42:05;;;;;;;47.27;23.80;;;;;;;5.45;51.67;101324.53;5032042;28;20434;-48
2022/01/27 03:44:33;;;;;;;42.37;23.90;;;;;;;5.46;49.96;101325.38;5031570;28;20445;-48
2022/01/27 03:47:02;;;;;;;41.03;23.00;;;;;;;5.47;49.23;101325.22;5031507;28;20459;-50
2022/01/27 03:49:29;;;;;;;43.90;24.03;;;;;;;5.47;47.45;101332.31;5031149;28;20456;-46
2022/01/27 03:52:00;;;;;;;39.97;22.20;;;;;;;5.48;46.03;101320.75;5031481;28;20439;-49
2022/01/27 03:54:28;;;;;;;35.00;22.23;;;;;;;5.46;44.97;101328.03;5031737;28;20436;-45
2022/01/27 03:56:55;;;;;;;42.90;22.50;;;;;;;5.47;43.23;101305.88;5031706;28;20910;-46
2022/01/27 03:59:26;;;;;;;38.63;24.13;;;;;;;5.45;42.50;101318.41;5031104;28;20460;-51
2022/01/27 04:01:54;;;;;;;35.50;22.70;;;;;;;5.47;41.52;101305.88;5031722;28;20795;-47
2022/01/27 04:04:22;;;;;;;40.70;23.70;;;;;;;5.48;41.15;101310.19;5031524;28;20432;-46
2022/01/27 04:06:52;;;;;;;39.30;22.30;;;;;;;5.46;40.59;101297.13;5031211;28;20456;-53
2022/01/27 04:09:20;;;;;;;48.07;22.63;;;;;;;5.48;40.53;101294.31;5030948;28;20510;-49
2022/01/27 04:11:48;;;;;;;29.83;19.53;;;;;;;5.47;40.21;101293.47;5031416;28;20925;-51
2022/01/27 04:14:16;;;;;;;29.13;20.73;;;;;;;5.49;39.54;101272.19;5031687;28;20811;-51
2022/01/27 04:16:45;;;;;;;35.43;22.63;;;;;;;5.50;39.58;101276.47;5031401;28;20462;-50
2022/01/27 04:19:13;;;;;;;26.33;20.17;;;;;;;5.48;39.38;101287.22;5030667;28;20471;-49
2022/01/27 04:21:40;;;;;;;36.57;23.77;;;;;;;5.46;38.61;101275.97;5031632;28;20803;-45
2022/01/27 04:24:10;;;;;;;34.40;21.13;;;;;;;5.45;38.23;101294.63;5031555;28;20523;-47
2022/01/27 04:26:42;;;;;;;30.10;21.80;;;;;;;5.46;37.33;101264.53;5031266;28;20996;-50
2022/01/27 04:29:10;;;;;;;30.63;21.63;;;;;;;5.48;37.29;101274.00;5030682;28;20464;-47
2022/01/27 04:31:40;;;;;;;36.53;21.13;;;;;;;5.48;38.05;101271.34;5031201;28;20432;-49
2022/01/27 04:34:11;;;;;;;25.03;19.80;;;;;;;5.48;37.69;101250.19;5035274;28;20436;-47
2022/01/27 04:36:40;;;;;;;23.17;19.47;;;;;;;5.48;37.59;101246.69;5035238;28;20448;-46
2022/01/27 04:39:14;;;;;;;28.80;19.60;;;;;;;5.50;37.51;101247.38;5034363;28;20466;-48
2022/01/27 04:41:47;;;;;;;27.73;21.83;;;;;;;5.51;36.84;101254.34;5035067;28;20428;-46
2022/01/27 04:44:23;;;;;;;26.93;21.10;;;;;;;5.52;36.48;101242.78;5034710;28;20976;-45
2022/01/27 04:46:56;;;;;;;22.57;18.80;;;;;;;5.52;36.33;101235.69;5034910;28;20852;-47
2022/01/27 04:49:26;;;;;;;23.60;18.23;;;;;;;5.53;36.22;101239.97;5034019;28;20468;-50
2022/01/27 04:51:54;;;;;;;32.63;21.30;;;;;;;5.51;35.14;101228.72;5034878;28;20425;-51
2022/01/27 04:54:26;;;;;;;25.30;19.20;;;;;;;5.53;34.49;101224.09;5034659;28;20441;-48
2022/01/27 04:56:58;;;;;;;24.53;20.80;;;;;;;5.58;33.99;101213.06;5034515;28;20444;-48
2022/01/27 04:59:29;;;;;;;27.53;20.30;;;;;;;5.57;34.40;101203.47;5034185;28;20460;-48
2022/01/27 05:02:01;;;;;;;22.50;19.77;;;;;;;5.56;34.22;101204.44;5034679;28;20489;-50
2022/01/27 05:04:34;;;;;;;32.13;20.43;;;;;;;5.59;34.52;101194.38;5034516;28;20441;-51
2022/01/27 05:07:02;;;;;;;24.60;19.33;;;;;;;5.56;34.66;101196.50;5034635;28;20812;-47
2022/01/27 05:09:29;;;;;;;27.27;19.77;;;;;;;5.57;33.42;101182.31;5033844;28;20525;-46
2022/01/27 05:12:08;;;;;;;24.67;20.60;;;;;;;5.61;32.13;101186.31;5034640;28;20432;-48
2022/01/27 05:14:35;;;;;;;25.10;21.20;;;;;;;5.61;33.05;101188.97;5034544;28;20432;-46
2022/01/27 05:17:04;;;;;;;28.77;20.97;;;;;;;5.57;32.47;101174.38;5034185;28;20439;-50
2022/01/27 05:19:32;;;;;;;31.03;22.00;;;;;;;5.62;32.75;101171.25;5033443;28;20464;-48
2022/01/27 05:22:00;;;;;;;32.90;22.60;;;;;;;5.58;33.00;101174.19;5034185;28;20432;-46
2022/01/27 05:24:28;;;;;;;37.23;22.57;;;;;;;5.56;32.12;101168.25;5034334;28;20778;-45
2022/01/27 05:26:56;;;;;;;29.27;22.50;;;;;;;5.57;31.43;101171.72;5033956;28;20446;-49
2022/01/27 05:29:23;;;;;;;29.63;21.87;;;;;;;5.57;31.29;101155.84;5033391;28;20981;-51
2022/01/27 05:31:51;;;;;;;29.57;24.90;;;;;;;5.59;31.14;101151.22;5033981;28;20435;-46
2022/01/27 05:34:19;;;;;;;30.80;21.17;;;;;;;5.64;30.61;101161.34;5034057;28;20929;-46
2022/01/27 05:36:48;;;;;;;33.07;24.50;;;;;;;5.62;29.82;101139.50;5034186;28;20832;-46
2022/01/27 05:39:15;;;;;;;36.40;21.60;;;;;;;5.64;30.06;101142.84;5033507;28;20486;-47
2022/01/27 05:41:43;;;;;;;45.93;22.63;;;;;;;5.65;29.57;101134.72;5033918;28;20428;-47
2022/01/27 05:44:10;;;;;;;26.57;21.20;;;;;;;5.68;29.93;101130.94;5033662;28;20436;-46
2022/01/27 05:46:38;;;;;;;41.03;25.43;;;;;;;5.71;30.18;101143.84;5033511;28;20483;-48
2022/01/27 05:49:06;;;;;;;33.97;25.30;;;;;;;5.73;30.47;101137.44;5032958;28;20480;-49
2022/01/27 05:51:34;;;;;;;37.63;24.90;;;;;;;5.75;30.75;101137.28;5033778;28;20435;-50
2022/01/27 05:54:03;;;;;;;37.50;23.43;;;;;;;5.72;30.83;101133.13;5033808;28;21014;-46
2022/01/27 05:56:30;;;;;;;38.07;23.53;;;;;;;5.75;29.32;101116.09;5033484;28;20452;-46
2022/01/27 05:58:58;;;;;;;29.97;22.03;;;;;;;5.75;29.50;101116.94;5032855;28;20483;-52
2022/01/27 06:01:26;;;;;;;27.57;24.50;;;;;;;5.75;28.17;101113.47;5033485;28;20789;-45
2022/01/27 06:03:54;;;;;;;42.40;27.60;;;;;;;5.78;27.97;101119.28;5033317;28;21112;-45
2022/01/27 06:06:21;;;;;;;41.07;25.70;;;;;;;5.81;27.37;101113.69;5033485;28;20896;-48
2022/01/27 06:08:49;;;;;;;38.60;27.07;;;;;;;5.82;27.06;101091.53;5032813;28;20837;-48
2022/01/27 06:11:18;;;;;;;43.93;27.27;;;;;;;5.86;27.04;101115.88;5033177;28;20878;-50
2022/01/27 06:13:48;;;;;;;43.90;27.47;;;;;;;5.89;27.47;101105.81;5033126;28;20432;-47
2022/01/27 06:16:16;;;;;;;58.70;31.60;;;;;;;5.93;26.27;101103.69;5033216;28;20452;-46
2022/01/27 06:18:43;;;;;;;57.30;32.23;;;;;;;5.97;25.63;101094.44;5032611;28;20456;-49
2022/01/27 06:21:13;;;;;;;61.10;32.03;;;;;;;6.00;26.45;101099.41;5033096;28;20428;-51
2022/01/27 06:23:40;;;;;;;57.50;32.73;;;;;;;6.03;26.62;101091.97;5033068;28;20801;-45
2022/01/27 06:26:08;;;;;;;51.63;31.70;;;;;;;6.06;27.05;101094.28;5032691;28;20853;-45
2022/01/27 06:28:37;;;;;;;59.37;32.50;;;;;;;6.08;26.79;101099.44;5032331;28;20831;-46
2022/01/27 06:31:04;;;;;;;76.30;35.73;;;;;;;6.12;26.83;101101.59;5032848;28;20436;-45
2022/01/27 06:33:33;;;;;;;43.53;31.40;;;;;;;6.14;28.31;101101.47;5032894;28;20463;-45
2022/01/27 06:36:00;;;;;;;50.70;33.13;;;;;;;6.17;27.74;101081.78;5032730;28;20455;-51
2022/01/27 06:38:28;;;;;;;64.83;31.53;;;;;;;6.22;26.56;101084.75;5032151;28;20464;-49
2022/01/27 06:40:55;;;;;;;53.13;30.20;;;;;;;6.25;27.52;101087.09;5032470;28;20436;-47
2022/01/27 06:43:23;;;;;;;64.77;31.67;;;;;;;6.30;27.97;101088.25;5032547;28;20437;-47
2022/01/27 06:45:52;;;;;;;53.27;30.40;;;;;;;6.34;28.24;101086.97;5032627;28;20459;-48
2022/01/27 06:48:20;;;;;;;45.87;29.60;;;;;;;6.42;28.68;101092.28;5031952;28;20460;-50
2022/01/27 06:50:53;;;;;;;46.13;28.80;;;;;;;6.45;30.26;101075.25;5032695;28;20468;-47
2022/01/27 06:53:21;;;;;;;42.97;28.37;;;;;;;6.47;31.16;101060.84;5032363;28;20451;-49
2022/01/27 06:55:49;;;;;;;49.40;27.60;;;;;;;6.54;31.99;101074.28;5032029;28;20459;-47
2022/01/27 06:58:16;;;;;;;40.83;27.63;;;;;;;6.54;33.87;101063.69;5031995;28;20467;-48
2022/01/27 07:00:44;;;;;;;53.70;26.97;;;;;;;6.58;34.42;101078.25;5032455;28;20428;-49
2022/01/27 07:03:14;;;;;;;55.07;26.73;;;;;;;6.60;35.87;101071.00;5032359;28;20459;-46
2022/01/27 07:05:42;;;;;;;43.50;25.77;;;;;;;6.64;37.57;101082.91;5032171;28;20448;-47
2022/01/27 07:08:09;;;;;;;41.33;25.37;;;;;;;6.64;38.95;101072.31;5031786;28;20444;-49
2022/01/27 07:10:37;;;;;;;43.73;27.70;;;;;;;6.66;39.90;101071.13;5032316;28;20479;-48
2022/01/27 07:13:05;;;;;;;47.90;25.80;;;;;;;6.67;42.04;101066.69;5032248;28;20442;-47
2022/01/27 07:15:33;;;;;;;40.40;24.33;;;;;;;6.67;42.71;101067.50;5032087;28;20458;-45
2022/01/27 07:18:00;;;;;;;41.70;24.30;;;;;;;6.68;44.06;101069.19;5031378;28;20437;-48
2022/01/27 07:20:29;;;;;;;43.77;24.60;;;;;;;6.68;44.99;101069.19;5031968;28;20424;-45
2022/01/27 07:22:57;;;;;;;45.30;24.83;;;;;;;6.68;44.95;101060.41;5032124;28;20439;-46
2022/01/27 07:25:24;;;;;;;43.27;23.90;;;;;;;6.70;44.57;101047.78;5055895;22;20488;-43
2022/01/27 07:27:57;;;;;;;38.53;23.20;;;;;;;6.73;45.01;101070.50;5031191;28;20428;-48
2022/01/27 07:30:25;;;;;;;43.10;25.07;;;;;;;6.74;46.13;101077.47;5031846;28;20476;-45
2022/01/27 07:32:53;;;;;;;35.70;23.37;;;;;;;6.76;48.38;101055.09;5032095;28;20432;-47
2022/01/27 07:35:21;;;;;;;40.30;24.50;;;;;;;6.78;49.61;101058.41;5031875;28;20547;-46
2022/01/27 07:37:50;;;;;;;38.07;24.57;;;;;;;6.82;49.61;101064.19;5031219;28;20805;-47
2022/01/27 07:40:17;;;;;;;45.00;22.30;;;;;;;6.80;51.01;101064.38;5031880;28;20436;-44
2022/01/27 07:43:05;;;;;;;37.60;22.10;;;;;;;6.85;50.92;101050.63;5031932;28;20850;-47
2022/01/27 07:45:33;;;;;;;36.00;22.07;;;;;;;6.89;52.56;101041.34;5031370;28;20775;-45
2022/01/27 07:48:00;;;;;;;39.77;23.17;;;;;;;6.91;53.51;101060.56;5031212;28;20429;-43
2022/01/27 07:50:30;;;;;;;38.40;22.40;;;;;;;6.91;55.15;101063.22;5031540;28;21014;-44
2022/01/27 07:52:59;;;;;;;38.17;21.70;;;;;;;6.92;55.89;101062.25;5031676;28;20444;-44
2022/01/27 07:55:26;;;;;;;40.17;23.90;;;;;;;6.92;56.01;101059.59;5031590;28;20456;-43
2022/01/27 07:57:55;;;;;;;45.57;22.20;;;;;;;6.93;57.10;101062.06;5030902;28;20836;-44
2022/01/27 08:00:22;;;;;;;41.13;22.20;;;;;;;6.96;57.07;101050.31;5031624;28;20429;-45
2022/01/27 08:02:50;;;;;;;39.77;20.83;;;;;;;6.94;56.69;101058.41;5031806;28;20439;-43
2022/01/27 08:05:18;;;;;;;38.80;20.83;;;;;;;6.97;57.61;101046.66;5031449;28;20452;-43
2022/01/27 08:07:46;;;;;;;35.83;19.30;;;;;;;6.96;59.06;101037.88;5033150;28;20436;-43
2022/01/27 08:10:15;;;;;;;49.60;19.27;;;;;;;6.98;61.23;101050.97;5015332;28;20481;-43
2022/01/27 08:12:43;;;;;;;34.70;21.10;;;;;;;6.99;61.11;101042.03;5015719;28;20441;-44
2022/01/27 08:15:13;;;;;;;38.33;19.50;;;;;;;7.01;61.30;101046.16;5015720;28;20437;-44
2022/01/27 08:17:42;;;;;;;40.30;18.90;;;;;;;7.02;62.25;101045.16;5015581;28;20444;-43
2022/01/27 08:20:10;;;;;;;39.80;19.73;;;;;;;7.05;63.61;101042.16;5034773;28;20464;-43
2022/01/27 08:22:38;;;;;;;40.07;20.13;;;;;;;7.08;66.62;101059.56;5035469;28;20940;-43
2022/01/27 08:25:07;;;;;;;38.50;19.17;;;;;;;7.10;71.44;101063.75;5034934;28;20952;-42
2022/01/27 08:27:38;;;;;;;39.47;18.73;;;;;;;7.10;73.68;101054.94;5035266;28;20428;-43
2022/01/27 08:30:07;;;;;;;45.97;19.60;;;;;;;7.10;75.53;101057.59;5034741;28;20554;-47
2022/01/27 08:32:46;;;;;;;34.30;18.43;;;;;;;7.13;75.13;101054.63;5035283;28;20436;-42
2022/01/27 08:35:17;;;;;;;44.37;18.73;;;;;;;7.15;74.50;101047.31;5035027;28;21242;-44
2022/01/27 08:37:45;;;;;;;43.60;17.50;;;;;;;7.15;74.58;101058.75;5034966;28;20489;-47
2022/01/27 08:40:14;;;;;;;42.50;19.33;;;;;;;7.23;74.26;101055.25;5015129;28;20472;-44
2022/01/27 08:43:04;;;;;;;37.60;19.33;;;;;;;7.32;74.04;101064.84;5015330;28;20441;-45
2022/01/27 08:45:31;;;;;;;38.87;17.90;;;;;;;7.39;77.17;101063.19;5023123;28;20975;-43
2022/01/27 08:48:00;;;;;;;34.40;16.63;;;;;;;7.40;80.85;101070.19;5030644;28;20424;-46
2022/01/27 08:50:28;;;;;;;33.07;16.73;;;;;;;7.44;81.84;101070.66;5015122;28;20473;-43
2022/01/27 08:52:56;;;;;;;53.93;18.90;;;;;;;7.43;83.71;101066.34;5015124;28;20433;-45
2022/01/27 08:55:24;;;;;;;44.13;17.50;;;;;;;7.41;85.19;101073.63;5015185;28;20449;-43
2022/01/27 08:57:51;;;;;;;42.87;18.47;;;;;;;7.46;84.75;101066.84;5014351;28;20440;-48
2022/01/27 09:00:20;;;;;;;38.73;17.60;;;;;;;7.43;85.92;101067.19;5014787;28;20429;-45
2022/01/27 09:03:08;;;;;;;48.33;17.70;;;;;;;7.43;87.15;101066.34;5015004;28;20440;-44
2022/01/27 09:05:36;;;;;;;41.23;17.43;;;;;;;7.43;87.52;101066.34;5015003;28;20459;-45
2022/01/27 09:08:04;;;;;;;34.63;16.43;;;;;;;7.49;88.04;101063.03;5014387;28;20436;-44
2022/01/27 09:10:33;;;;;;;32.20;15.93;;;;;;;7.57;89.34;101058.53;5014671;28;20473;-48
2022/01/27 09:13:01;;;;;;;44.47;17.67;;;;;;;7.69;89.82;101057.19;5014677;28;20444;-47
2022/01/27 09:15:31;;;;;;;36.67;16.30;;;;;;;7.65;92.85;101050.53;5014548;28;20472;-44
2022/01/27 09:17:59;;;;;;;34.77;16.50;;;;;;;7.67;93.07;101056.53;5013408;28;20938;-43
2022/01/27 09:20:27;;;;;;;34.50;15.80;;;;;;;7.74;93.39;101051.34;5014757;28;21108;-44
2022/01/27 09:22:57;;;;;;;38.83;15.57;;;;;;;7.80;94.33;101067.41;5014621;28;20433;-43
2022/01/27 09:25:30;;;;;;;41.53;17.33;;;;;;;7.86;95.63;101060.59;5014380;28;20461;-48
2022/01/27 09:27:59;;;;;;;45.90;17.20;;;;;;;7.91;95.67;101050.31;5013875;28;20434;-45
2022/01/27 09:30:27;;;;;;;33.03;16.93;;;;;;;7.97;96.57;101062.91;5014563;28;20477;-45
2022/01/27 09:32:58;;;;;;;26.30;17.17;;;;;;;8.04;97.03;101061.19;5014508;28;20429;-44
2022/01/27 09:35:27;;;;;;;48.23;17.70;;;;;;;8.08;97.29;101054.53;5014204;28;20453;-44
2022/01/27 09:37:56;;;;;;;36.07;17.40;;;;;;;8.17;97.63;101060.66;5013455;28;20809;-48
2022/01/27 09:40:24;;;;;;;30.17;16.63;;;;;;;8.18;97.65;101068.44;5014584;28;20429;-42
2022/01/27 09:42:53;;;;;;;43.20;16.70;;;;;;;8.12;97.26;101066.47;5014080;28;20437;-47
2022/01/27 09:45:22;;;;;;;33.50;14.80;;;;;;;8.20;97.39;101076.25;5005950;28;20449;-44
2022/01/27 09:47:55;;;;;;;41.80;16.70;;;;;;;8.22;97.52;101068.91;5013392;28;20429;-46
2022/01/27 09:50:34;;;;;;;24.43;14.23;;;;;;;8.28;97.72;101074.41;5013778;28;20520;-45
2022/01/27 09:53:03;;;;;;;36.10;16.70;;;;;;;8.24;97.80;101081.03;5014059;28;20476;-46
2022/01/27 09:55:30;;;;;;;31.10;14.77;;;;;;;8.22;97.50;101063.59;5013888;28;20457;-48
2022/01/27 09:58:05;;;;;;;34.40;15.63;;;;;;;8.31;97.54;101073.22;5013256;28;20437;-48
2022/01/27 10:00:33;;;;;;;35.60;16.10;;;;;;;8.30;97.15;101071.59;5013786;28;20528;-49
2022/01/27 10:03:02;;;;;;;26.13;13.27;;;;;;;8.26;97.06;101080.88;5013601;28;20438;-49
2022/01/27 10:05:32;;;;;;;32.33;13.60;;;;;;;8.26;97.50;101084.34;5013803;28;20449;-45
2022/01/27 10:08:08;;;;;;;32.63;15.83;;;;;;;8.30;97.42;101091.00;5013163;28;20869;-45
2022/01/27 10:10:38;;;;;;;33.20;15.27;;;;;;;8.43;97.17;101092.25;5013597;28;20425;-46
2022/01/27 10:13:08;;;;;;;32.60;14.40;;;;;;;8.48;96.41;101096.09;5013623;28;20444;-47
2022/01/27 10:15:45;;;;;;;38.70;15.67;;;;;;;8.40;96.37;101101.41;5013602;28;20507;-48
2022/01/27 10:18:15;;;;;;;42.30;15.37;;;;;;;8.38;95.98;101099.94;5012745;28;21009;-44
2022/01/27 10:20:49;;;;;;;27.67;14.03;;;;;;;8.41;95.54;101097.75;5013367;28;20437;-45
2022/01/27 10:23:20;;;;;;;34.67;14.30;;;;;;;8.37;95.81;101096.44;5013321;28;20447;-44
2022/01/27 10:25:53;;;;;;;33.27;14.60;;;;;;;8.25;95.72;101108.44;5012930;28;20470;-43
2022/01/27 10:28:43;;;;;;;37.63;15.60;;;;;;;8.19;95.83;101103.78;5012827;28;20476;-44
2022/01/27 10:31:16;;;;;;;37.83;14.80;;;;;;;8.19;96.51;101112.59;5012382;28;20473;-50
2022/01/27 10:33:51;;;;;;;41.90;14.80;;;;;;;8.20;96.25;101111.63;5013250;28;20440;-44
2022/01/27 10:36:23;;;;;;;41.90;15.43;;;;;;;8.17;95.88;101105.81;5012900;28;20445;-47
2022/01/27 10:38:56;;;;;;;37.80;15.37;;;;;;;8.29;96.65;101099.16;5012434;28;21013;-42
2022/01/27 10:41:25;;;;;;;33.37;14.43;;;;;;;8.27;95.77;101096.66;5013016;28;20977;-46
2022/01/27 10:44:10;;;;;;;33.57;14.13;;;;;;;8.29;95.19;101102.63;5011927;28;20919;-47
2022/01/27 10:46:44;;;;;;;27.90;15.27;;;;;;;8.30;94.94;101100.81;5008187;28;20455;-43
2022/01/27 10:49:21;;;;;;;32.67;14.13;;;;;;;8.39;94.16;101090.97;5012503;28;20476;-47
2022/01/27 10:51:52;;;;;;;26.03;13.37;;;;;;;8.54;92.29;101100.66;5012906;28;20477;-49
2022/01/27 10:54:34;;;;;;;32.30;13.33;;;;;;;8.42;91.13;101095.94;5012762;28;20837;-44
2022/01/27 10:57:02;;;;;;;38.13;13.73;;;;;;;8.42;92.59;101098.59;5012598;28;20979;-43
2022/01/27 10:59:32;;;;;;;36.00;15.43;;;;;;;8.39;93.00;101102.44;5012203;28;20469;-46
2022/01/27 11:02:05;;;;;;;38.30;15.70;;;;;;;8.47;93.42;101101.56;5012832;28;20436;-45
2022/01/27 11:04:35;;;;;;;45.83;14.97;;;;;;;8.56;93.23;101097.84;5012776;28;20538;-48
2022/01/27 11:07:08;;;;;;;32.77;12.97;;;;;;;8.57;92.26;101096.84;5012521;28;20811;-46
2022/01/27 11:09:38;;;;;;;37.43;14.00;;;;;;;8.62;91.60;101090.00;5011969;28;20469;-48
2022/01/27 11:12:11;;;;;;;24.17;12.17;;;;;;;8.67;90.51;101070.84;5012636;28;20484;-48
2022/01/27 11:14:40;;;;;;;31.80;13.20;;;;;;;8.80;90.15;101093.22;5012619;28;20441;-44
2022/01/27 11:17:15;;;;;;;30.70;12.87;;;;;;;8.79;88.69;101070.28;5012265;28;20457;-46
2022/01/27 11:20:03;;;;;;;27.60;13.00;;;;;;;8.76;88.76;101086.59;5011919;28;20468;-46
2022/01/27 11:22:59;;;;;;;25.20;13.23;;;;;;;8.66;86.80;101072.69;5012586;28;20430;-44
2022/01/27 11:28:17;;;;;;;26.50;12.07;;;;;;;8.79;86.71;101085.41;5011614;28;20461;-44
2022/01/27 11:30:57;;;;;;;28.47;12.30;;;;;;;8.82;85.23;101085.06;5012385;28;20433;-46
2022/01/27 11:33:31;;;;;;;30.87;12.47;;;;;;;8.93;84.86;101074.00;5012346;28;20476;-44
2022/01/27 11:36:11;;;;;;;27.67;9.90;;;;;;;8.68;83.36;101075.19;5012194;28;20516;-44
2022/01/27 11:38:43;;;;;;;26.77;9.87;;;;;;;8.64;83.31;101060.56;5011617;28;20464;-45
2022/01/27 11:41:42;;;;;;;37.93;12.30;;;;;;;8.56;84.01;101073.94;5011915;28;20444;-43
2022/01/27 11:44:28;;;;;;;18.87;10.50;;;;;;;8.50;85.35;101077.28;5008865;28;20445;-47
2022/01/27 11:47:19;;;;;;;22.80;11.33;;;;;;;8.43;85.47;101071.00;5009895;28;20445;-46
2022/01/27 11:49:55;;;;;;;29.50;11.83;;;;;;;8.33;86.69;101072.03;5011763;28;20461;-45
2022/01/27 11:52:27;;;;;;;22.20;11.77;;;;;;;8.46;86.89;101055.53;5012085;28;20905;-46
2022/01/27 11:54:58;;;;;;;25.60;11.30;;;;;;;8.54;86.19;101057.34;5011851;28;20433;-48
2022/01/27 11:57:40;;;;;;;26.07;12.33;;;;;;;8.48;85.66;101061.53;5011714;28;20792;-46